createdAt,value
2018-11-11T00:02:27.230Z,1.83
2018-11-11T00:04:55.658Z,2.03
2018-11-11T00:07:24.053Z,1.97
2018-11-11T00:09:52.467Z,1.93
2018-11-11T00:12:20.984Z,1.67
2018-11-11T00:14:49.356Z,1.90
2018-11-11T00:17:17.785Z,1.80
2018-11-11T00:19:46.227Z,1.80
2018-11-11T00:22:14.701Z,1.80
2018-11-11T00:24:43.054Z,1.90
2018-11-11T00:27:11.534Z,2.20
2018-11-11T00:29:39.946Z,2.13
2018-11-11T00:32:08.528Z,2.20
2018-11-11T00:34:36.897Z,1.97
2018-11-11T00:37:05.389Z,2.40
2018-11-11T00:39:33.846Z,2.37
2018-11-11T00:42:02.246Z,2.23
2018-11-11T00:44:30.644Z,2.20
2018-11-11T00:46:59.075Z,2.47
2018-11-11T00:49:27.498Z,2.17
2018-11-11T00:51:55.902Z,1.90
2018-11-11T00:54:24.313Z,2.27
2018-11-11T00:56:52.753Z,1.87
2018-11-11T00:59:21.133Z,1.77
2018-11-11T01:01:49.545Z,1.87
2018-11-11T01:04:24.616Z,1.70
2018-11-11T01:06:53.067Z,2.10
2018-11-11T01:09:21.516Z,1.57
2018-11-11T01:11:49.953Z,1.83
2018-11-11T01:14:18.340Z,1.90
2018-11-11T01:16:46.748Z,2.20
2018-11-11T01:19:15.276Z,2.10
2018-11-11T01:21:43.674Z,1.80
2018-11-11T01:24:12.110Z,2.23
2018-11-11T01:26:40.482Z,2.20
2018-11-11T01:29:08.893Z,1.80
2018-11-11T01:31:37.285Z,2.10
2018-11-11T01:34:05.689Z,1.83
2018-11-11T01:36:34.101Z,2.07
2018-11-11T01:39:02.598Z,1.73
2018-11-11T01:41:30.989Z,2.23
2018-11-11T01:43:59.374Z,1.70
2018-11-11T01:46:27.791Z,2.23
2018-11-11T01:48:56.175Z,1.97
2018-11-11T01:51:24.567Z,1.87
2018-11-11T01:53:53.009Z,2.27
2018-11-11T01:56:21.379Z,1.97
2018-11-11T01:58:49.781Z,1.80
2018-11-11T02:01:18.172Z,2.50
2018-11-11T02:03:46.641Z,1.70
2018-11-11T02:06:15.041Z,2.13
2018-11-11T02:08:43.410Z,2.07
2018-11-11T02:11:11.826Z,1.70
2018-11-11T02:13:40.181Z,1.60
2018-11-11T02:16:08.626Z,2.10
2018-11-11T02:18:37.041Z,1.50
2018-11-11T02:21:05.803Z,1.87
2018-11-11T02:23:34.209Z,2.43
2018-11-11T02:26:02.621Z,2.13
2018-11-11T02:28:31.045Z,1.90
2018-11-11T02:30:59.474Z,2.00
2018-11-11T02:33:27.863Z,2.17
2018-11-11T02:35:56.268Z,2.40
2018-11-11T02:38:24.648Z,1.63
2018-11-11T02:40:53.060Z,2.13
2018-11-11T02:43:21.537Z,2.37
2018-11-11T02:45:50.002Z,2.40
2018-11-11T02:48:18.466Z,1.87
2018-11-11T02:50:46.909Z,2.10
2018-11-11T02:53:15.285Z,2.13
2018-11-11T02:55:43.706Z,2.23
2018-11-11T02:58:12.098Z,2.33
2018-11-11T03:00:40.509Z,2.17
2018-11-11T03:03:08.914Z,2.77
2018-11-11T03:05:37.356Z,2.20
2018-11-11T03:08:05.966Z,2.30
2018-11-11T03:10:34.402Z,2.50
2018-11-11T03:13:02.797Z,2.50
2018-11-11T03:15:31.209Z,2.27
2018-11-11T03:17:59.585Z,2.10
2018-11-11T03:20:28.049Z,2.40
2018-11-11T03:22:56.470Z,2.00
2018-11-11T03:25:24.888Z,2.50
2018-11-11T03:27:53.273Z,2.70
2018-11-11T03:30:21.701Z,2.17
2018-11-11T03:32:50.093Z,2.17
2018-11-11T03:35:18.513Z,2.50
2018-11-11T03:37:47.381Z,2.13
2018-11-11T03:40:18.187Z,1.83
2018-11-11T03:42:46.974Z,2.60
2018-11-11T03:45:16.641Z,2.53
2018-11-11T03:47:46.045Z,1.90
2018-11-11T03:50:14.442Z,1.97
2018-11-11T03:52:43.334Z,2.27
2018-11-11T03:55:11.955Z,1.70
2018-11-11T03:57:40.398Z,2.27
2018-11-11T04:00:11.487Z,1.90
2018-11-11T04:02:39.949Z,2.23
2018-11-11T04:05:09.816Z,2.10
2018-11-11T04:07:38.654Z,2.20
2018-11-11T04:10:09.163Z,1.80
2018-11-11T04:12:37.713Z,2.03
2018-11-11T04:15:07.839Z,2.33
2018-11-11T04:17:36.706Z,1.80
2018-11-11T04:20:05.505Z,2.10
2018-11-11T04:22:33.917Z,1.97
2018-11-11T04:25:02.312Z,1.60
2018-11-11T04:27:30.958Z,1.60
2018-11-11T04:29:59.349Z,1.97
2018-11-11T04:32:27.990Z,2.10
2018-11-11T04:34:56.621Z,1.67
2018-11-11T04:37:25.303Z,1.70
2018-11-11T04:39:53.837Z,1.67
2018-11-11T04:42:22.389Z,1.37
2018-11-11T04:44:50.783Z,1.73
2018-11-11T04:47:19.828Z,1.60
2018-11-11T04:49:48.293Z,1.43
2018-11-11T04:52:16.896Z,2.10
2018-11-11T04:54:45.288Z,1.43
2018-11-11T04:57:13.863Z,1.53
2018-11-11T04:59:42.282Z,1.60
2018-11-11T05:02:10.879Z,1.80
2018-11-11T05:04:39.315Z,1.63
2018-11-11T05:07:08.409Z,1.93
2018-11-11T05:09:36.761Z,1.53
2018-11-11T05:12:05.195Z,1.33
2018-11-11T05:14:33.575Z,1.50
2018-11-11T05:17:01.967Z,1.20
2018-11-11T05:19:30.365Z,1.90
2018-11-11T05:21:59.335Z,1.93
2018-11-11T05:24:27.910Z,2.07
2018-11-11T05:26:56.317Z,1.57
2018-11-11T05:29:24.724Z,1.60
2018-11-11T05:31:53.181Z,1.40
2018-11-11T05:34:21.653Z,1.30
2018-11-11T05:36:50.037Z,1.83
2018-11-11T05:39:18.457Z,1.40
2018-11-11T05:41:46.817Z,1.87
2018-11-11T05:44:15.425Z,1.80
2018-11-11T05:46:43.807Z,1.60
2018-11-11T05:49:12.455Z,1.60
2018-11-11T05:51:40.853Z,1.20
2018-11-11T05:54:09.590Z,1.43
2018-11-11T05:56:38.151Z,1.20
2018-11-11T05:59:06.693Z,1.47
2018-11-11T06:01:35.167Z,1.33
2018-11-11T06:04:03.622Z,1.03
2018-11-11T06:06:32.045Z,1.70
2018-11-11T06:09:00.457Z,1.40
2018-11-11T06:11:28.875Z,1.43
2018-11-11T06:13:57.549Z,1.33
2018-11-11T06:16:26.141Z,1.07
2018-11-11T06:18:54.593Z,1.17
2018-11-11T06:21:22.981Z,1.40
2018-11-11T06:23:51.410Z,1.90
2018-11-11T06:26:20.871Z,1.20
2018-11-11T06:28:49.289Z,1.37
2018-11-11T06:31:17.697Z,1.40
2018-11-11T06:33:46.097Z,1.67
2018-11-11T06:36:14.486Z,1.50
2018-11-11T06:38:42.965Z,1.47
2018-11-11T06:41:11.365Z,1.60
2018-11-11T06:43:39.793Z,1.93
2018-11-11T06:46:08.181Z,1.70
2018-11-11T06:48:36.617Z,1.53
2018-11-11T06:51:05.236Z,1.80
2018-11-11T06:53:33.634Z,1.60
2018-11-11T06:56:02.038Z,2.20
2018-11-11T06:58:30.493Z,1.83
2018-11-11T07:00:58.916Z,1.67
2018-11-11T07:03:38.594Z,2.00
2018-11-11T07:06:07.529Z,2.20
2018-11-11T07:08:36.106Z,2.03
2018-11-11T07:11:04.665Z,1.87
2018-11-11T07:13:34.800Z,2.00
2018-11-11T07:22:01.322Z,1.93
2018-11-11T07:24:29.748Z,1.60
2018-11-11T07:26:58.134Z,1.40
2018-11-11T07:29:26.601Z,1.30
2018-11-11T07:31:55.217Z,1.50
2018-11-11T07:34:23.606Z,1.10
2018-11-11T07:36:52.136Z,1.07
2018-11-11T07:39:20.590Z,1.10
2018-11-11T07:41:48.954Z,1.40
2018-11-11T07:44:17.373Z,1.40
2018-11-11T07:46:45.801Z,1.30
2018-11-11T07:49:14.777Z,1.17
2018-11-11T07:51:43.166Z,1.40
2018-11-11T07:54:11.556Z,1.00
2018-11-11T07:56:39.963Z,1.17
2018-11-11T07:59:08.385Z,1.23
2018-11-11T08:01:36.815Z,1.00
2018-11-11T08:04:05.233Z,1.27
2018-11-11T08:06:33.682Z,1.67
2018-11-11T08:09:02.280Z,1.30
2018-11-11T08:11:41.869Z,1.50
2018-11-11T08:14:10.246Z,1.10
2018-11-11T08:16:38.658Z,1.10
2018-11-11T08:19:07.065Z,1.33
2018-11-11T08:21:36.041Z,1.07
2018-11-11T08:24:04.642Z,1.17
2018-11-11T08:26:33.042Z,1.80
2018-11-11T08:29:01.402Z,2.10
2018-11-11T08:31:29.809Z,2.20
2018-11-11T08:33:58.241Z,2.73
2018-11-11T08:36:26.642Z,1.80
2018-11-11T08:38:55.107Z,1.90
2018-11-11T08:41:23.506Z,1.17
2018-11-11T08:43:51.862Z,1.17
2018-11-11T08:46:20.249Z,1.27
2018-11-11T08:48:48.638Z,1.63
2018-11-11T08:51:17.087Z,1.03
2018-11-11T08:53:45.458Z,1.10
2018-11-11T08:56:13.860Z,1.20
2018-11-11T08:58:42.263Z,1.33
2018-11-11T09:01:10.669Z,1.30
2018-11-11T09:03:39.149Z,1.30
2018-11-11T09:06:07.583Z,1.00
2018-11-11T09:08:35.957Z,1.13
2018-11-11T09:11:04.410Z,1.00
2018-11-11T09:13:32.866Z,1.30
2018-11-11T09:16:01.278Z,0.77
2018-11-11T09:18:29.719Z,0.83
2018-11-11T09:20:58.249Z,1.17
2018-11-11T09:23:26.659Z,1.20
2018-11-11T09:25:55.045Z,1.30
2018-11-11T09:28:23.414Z,0.80
2018-11-11T09:30:51.821Z,1.07
2018-11-11T09:33:20.213Z,1.00
2018-11-11T09:35:48.621Z,0.60
2018-11-11T09:38:16.994Z,1.07
2018-11-11T09:40:45.409Z,1.30
2018-11-11T09:43:13.818Z,1.07
2018-11-11T09:45:42.313Z,1.03
2018-11-11T09:48:10.757Z,1.00
2018-11-11T09:50:39.247Z,0.70
2018-11-11T09:53:07.619Z,1.20
2018-11-11T09:55:36.017Z,1.37
2018-11-11T09:58:04.420Z,1.47
2018-11-11T10:00:32.814Z,1.50
2018-11-11T10:03:09.898Z,1.27
2018-11-11T10:07:45.746Z,1.17
2018-11-11T10:12:22.601Z,1.53
2018-11-11T10:15:55.055Z,1.37
2018-11-11T10:18:38.009Z,1.40
2018-11-11T10:21:13.660Z,1.10
2018-11-11T10:24:02.345Z,1.47
2018-11-11T10:26:43.805Z,1.10
2018-11-11T10:29:34.987Z,1.60
2018-11-11T10:32:16.326Z,2.07
2018-11-11T10:34:48.153Z,1.77
2018-11-11T10:38:22.444Z,2.07
2018-11-11T10:40:53.609Z,1.43
2018-11-11T10:43:26.225Z,1.30
2018-11-11T10:46:01.978Z,1.30
2018-11-11T10:48:33.462Z,1.33
2018-11-11T10:51:03.353Z,1.80
2018-11-11T10:53:32.354Z,1.27
2018-11-11T10:56:00.785Z,1.80
2018-11-11T10:58:29.283Z,1.57
2018-11-11T11:01:03.044Z,1.17
2018-11-11T11:03:32.782Z,1.70
2018-11-11T11:06:01.888Z,1.50
2018-11-11T11:08:30.366Z,1.90
2018-11-11T11:10:58.824Z,1.53
2018-11-11T11:13:28.177Z,1.80
2018-11-11T11:15:56.489Z,1.57
2018-11-11T11:18:24.892Z,2.10
2018-11-11T11:20:53.281Z,1.60
2018-11-11T11:23:21.654Z,1.93
2018-11-11T11:25:50.158Z,1.87
2018-11-11T11:28:18.450Z,1.60
2018-11-11T11:30:46.857Z,1.47
2018-11-11T11:33:15.280Z,1.77
2018-11-11T11:35:43.737Z,1.53
2018-11-11T11:38:12.134Z,1.73
2018-11-11T11:40:40.450Z,1.50
2018-11-11T11:43:08.897Z,1.30
2018-11-11T11:45:37.294Z,1.37
2018-11-11T11:48:06.100Z,1.50
2018-11-11T11:50:34.848Z,1.77
2018-11-11T11:53:03.573Z,1.80
2018-11-11T11:55:32.062Z,2.50
2018-11-11T11:58:35.514Z,3.03
2018-11-11T12:01:03.969Z,1.90
2018-11-11T12:03:33.266Z,1.53
2018-11-11T12:06:02.057Z,1.90
2018-11-11T12:08:30.774Z,1.80
2018-11-11T12:10:59.177Z,1.43
2018-11-11T12:13:28.501Z,1.53
2018-11-11T12:15:56.946Z,2.50
2018-11-11T12:18:25.369Z,1.87
2018-11-11T12:20:53.967Z,1.90
2018-11-11T12:23:22.555Z,2.03
2018-11-11T12:25:51.198Z,2.37
2018-11-11T12:28:20.055Z,1.40
2018-11-11T12:30:48.672Z,1.90
2018-11-11T12:33:17.277Z,1.97
2018-11-11T12:35:45.846Z,1.77
2018-11-11T12:38:14.279Z,1.10
2018-11-11T12:40:43.839Z,2.33
2018-11-11T12:43:12.294Z,1.47
2018-11-11T12:45:40.749Z,1.40
2018-11-11T12:48:09.167Z,1.80
2018-11-11T12:50:37.561Z,1.67
2018-11-11T12:53:06.061Z,1.80
2018-11-11T12:55:34.546Z,1.47
2018-11-11T12:58:02.937Z,1.97
2018-11-11T13:00:31.337Z,1.23
2018-11-11T13:02:59.730Z,1.33
2018-11-11T13:05:28.241Z,1.90
2018-11-11T13:07:56.697Z,1.67
2018-11-11T13:10:25.050Z,1.90
2018-11-11T13:12:53.461Z,1.60
2018-11-11T13:15:21.926Z,1.63
2018-11-11T13:17:50.349Z,1.73
2018-11-11T13:20:19.617Z,1.77
2018-11-11T13:22:48.252Z,1.70
2018-11-11T13:25:16.539Z,1.57
2018-11-11T13:27:44.975Z,1.80
2018-11-11T13:30:14.480Z,1.57
2018-11-11T13:32:42.894Z,1.70
2018-11-11T13:35:13.522Z,2.47
2018-11-11T13:37:42.224Z,2.00
2018-11-11T13:40:13.546Z,1.80
2018-11-11T13:42:42.114Z,1.53
2018-11-11T13:45:14.094Z,2.20
2018-11-11T13:47:43.568Z,2.10
2018-11-11T13:50:14.574Z,2.13
2018-11-11T13:52:44.477Z,2.20
2018-11-11T13:55:13.593Z,2.27
2018-11-11T13:57:42.702Z,2.00
2018-11-11T14:00:23.961Z,2.67
2018-11-11T14:02:52.445Z,2.57
2018-11-11T14:05:21.142Z,3.60
2018-11-11T14:07:49.680Z,2.70
2018-11-11T14:10:18.310Z,2.40
2018-11-11T14:12:46.822Z,2.87
2018-11-11T14:15:17.445Z,2.97
2018-11-11T14:17:46.460Z,2.27
2018-11-11T14:20:16.117Z,3.03
2018-11-11T14:22:45.604Z,3.03
2018-11-11T14:25:16.626Z,3.20
2018-11-11T14:27:45.338Z,3.53
2018-11-11T14:30:16.681Z,2.30
2018-11-11T14:32:45.541Z,2.33
2018-11-11T14:35:14.112Z,3.33
2018-11-11T14:37:42.838Z,2.40
2018-11-11T14:40:14.933Z,3.20
2018-11-11T14:42:43.414Z,2.90
2018-11-11T14:45:13.141Z,2.50
2018-11-11T14:47:42.319Z,2.73
2018-11-11T14:50:12.295Z,2.67
2018-11-11T14:52:41.311Z,2.40
2018-11-11T15:00:00.691Z,2.43
2018-11-11T15:02:29.093Z,2.53
2018-11-11T15:04:57.519Z,2.03
2018-11-11T15:07:25.938Z,2.50
2018-11-11T15:09:54.428Z,2.53
2018-11-11T15:12:22.877Z,2.33
2018-11-11T15:14:51.322Z,2.40
2018-11-11T15:17:19.734Z,3.03
2018-11-11T15:19:48.213Z,2.40
2018-11-11T15:22:16.570Z,2.67
2018-11-11T15:24:44.949Z,2.50
2018-11-11T15:27:13.333Z,2.90
2018-11-11T15:29:41.754Z,3.50
2018-11-11T15:32:10.146Z,3.83
2018-11-11T15:34:38.565Z,2.97
2018-11-11T15:37:07.022Z,3.20
2018-11-11T15:39:35.447Z,2.30
2018-11-11T15:42:03.939Z,2.73
2018-11-11T15:44:32.354Z,2.80
2018-11-11T15:47:00.734Z,9.23
2018-11-11T15:49:29.340Z,9.00
2018-11-11T15:51:57.828Z,2.70
2018-11-11T15:54:27.019Z,2.80
2018-11-11T15:56:55.522Z,2.33
2018-11-11T15:59:24.044Z,2.97
2018-11-11T16:01:52.388Z,2.60
2018-11-11T16:04:20.976Z,3.13
2018-11-11T16:06:49.392Z,2.80
2018-11-11T16:09:17.854Z,2.30
2018-11-11T16:11:46.232Z,3.13
2018-11-11T16:14:14.769Z,2.40
2018-11-11T16:16:43.090Z,2.60
2018-11-11T16:19:11.578Z,3.43
2018-11-11T16:21:39.946Z,2.30
2018-11-11T16:24:08.356Z,2.30
2018-11-11T16:26:36.767Z,2.10
2018-11-11T16:29:05.238Z,2.10
2018-11-11T16:31:33.637Z,3.47
2018-11-11T16:34:02.074Z,2.33
2018-11-11T16:36:30.530Z,2.07
2018-11-11T16:38:58.927Z,3.67
2018-11-11T16:41:27.407Z,9.00
2018-11-11T16:43:55.813Z,9.27
2018-11-11T16:46:24.207Z,4.60
2018-11-11T16:48:52.626Z,1.50
2018-11-11T16:51:21.104Z,1.70
2018-11-11T16:53:49.716Z,0.90
2018-11-11T16:56:18.130Z,1.00
2018-11-11T16:58:46.617Z,0.67
2018-11-11T17:01:14.998Z,0.60
2018-11-11T17:03:43.414Z,0.73
2018-11-11T17:06:11.846Z,0.70
2018-11-11T17:08:40.236Z,0.93
2018-11-11T17:11:08.699Z,0.70
2018-11-11T17:13:37.189Z,0.53
2018-11-11T17:16:05.673Z,0.80
2018-11-11T17:18:34.049Z,0.80
2018-11-11T17:21:02.529Z,0.77
2018-11-11T17:23:30.898Z,1.00
2018-11-11T17:25:59.263Z,1.10
2018-11-11T17:28:27.649Z,0.60
2018-11-11T17:30:56.050Z,1.00
2018-11-11T17:33:24.482Z,0.73
2018-11-11T17:35:52.905Z,0.60
2018-11-11T17:38:21.366Z,0.70
2018-11-11T17:40:49.742Z,1.10
2018-11-11T17:43:18.121Z,1.27
2018-11-11T17:45:46.529Z,1.00
2018-11-11T17:48:14.947Z,1.77
2018-11-11T17:50:43.317Z,1.33
2018-11-11T17:53:11.689Z,0.90
2018-11-11T17:55:40.143Z,1.10
2018-11-11T17:58:08.465Z,1.03
2018-11-11T18:00:36.854Z,1.30
2018-11-11T18:03:05.578Z,1.50
2018-11-11T18:05:33.961Z,0.80
2018-11-11T18:08:02.383Z,0.90
2018-11-11T18:10:30.918Z,0.93
2018-11-11T18:13:00.268Z,1.33
2018-11-11T18:15:32.413Z,2.37
2018-11-11T18:18:00.874Z,2.47
2018-11-11T18:20:30.707Z,1.93
2018-11-11T18:22:59.961Z,1.50
2018-11-11T18:25:28.384Z,1.60
2018-11-11T18:27:56.909Z,1.10
2018-11-11T18:30:27.703Z,0.90
2018-11-11T18:32:56.111Z,1.70
2018-11-11T18:35:24.582Z,1.60
2018-11-11T18:37:53.180Z,1.20
2018-11-11T18:40:22.898Z,1.53
2018-11-11T18:42:51.298Z,0.93
2018-11-11T18:45:23.010Z,1.00
2018-11-11T18:47:51.907Z,0.97
2018-11-11T18:50:22.756Z,1.20
2018-11-11T18:52:51.165Z,0.93
2018-11-11T18:55:19.614Z,0.90
2018-11-11T18:57:48.076Z,0.80
2018-11-11T19:00:20.457Z,0.70
2018-11-11T19:02:49.944Z,0.90
2018-11-11T19:05:19.173Z,1.00
2018-11-11T19:07:48.065Z,0.70
2018-11-11T19:10:23.908Z,1.10
2018-11-11T19:12:53.595Z,0.93
2018-11-11T19:15:22.378Z,1.03
2018-11-11T19:17:51.577Z,1.23
2018-11-11T19:20:21.210Z,1.50
2018-11-11T19:22:49.642Z,1.13
2018-11-11T19:25:19.305Z,1.40
2018-11-11T19:27:48.938Z,1.10
2018-11-11T19:30:18.417Z,1.30
2018-11-11T19:32:47.476Z,1.03
2018-11-11T19:35:16.573Z,0.87
2018-11-11T19:37:46.121Z,1.20
2018-11-11T19:40:29.546Z,0.70
2018-11-11T19:42:59.074Z,1.10
2018-11-11T19:45:28.710Z,1.07
2018-11-11T19:47:57.094Z,0.70
2018-11-11T19:50:26.426Z,1.10
2018-11-11T19:52:55.822Z,1.00
2018-11-11T19:55:24.563Z,1.30
2018-11-11T19:57:52.962Z,0.90
2018-11-11T20:00:29.433Z,0.90
2018-11-11T20:02:58.668Z,1.20
2018-11-11T20:05:27.413Z,1.83
2018-11-11T20:07:56.940Z,1.77
2018-11-11T20:10:26.407Z,2.67
2018-11-11T20:12:54.837Z,1.07
2018-11-11T20:15:25.755Z,1.20
2018-11-11T20:17:54.170Z,1.10
2018-11-11T20:20:24.059Z,1.03
2018-11-11T20:22:52.445Z,1.03
2018-11-11T20:25:21.358Z,1.10
2018-11-11T20:27:49.795Z,1.07
2018-11-11T20:30:24.016Z,1.40
2018-11-11T20:32:52.539Z,1.00
2018-11-11T20:35:23.257Z,1.10
2018-11-11T20:37:51.657Z,0.93
2018-11-11T20:40:21.234Z,1.00
2018-11-11T20:42:50.184Z,1.10
2018-11-11T20:45:19.908Z,0.97
2018-11-11T20:47:48.989Z,1.10
2018-11-11T20:50:19.649Z,0.97
2018-11-11T20:52:49.278Z,1.10
2018-11-11T20:55:18.288Z,0.70
2018-11-11T20:57:46.710Z,0.80
2018-11-11T21:00:17.444Z,0.63
2018-11-11T21:02:45.861Z,1.27
2018-11-11T21:05:15.549Z,1.20
2018-11-11T21:07:44.020Z,1.47
2018-11-11T21:10:14.222Z,0.90
2018-11-11T21:12:42.608Z,1.73
2018-11-11T21:15:13.320Z,1.53
2018-11-11T21:17:41.845Z,2.60
2018-11-11T21:20:11.834Z,1.90
2018-11-11T21:22:40.675Z,1.20
2018-11-11T21:25:09.310Z,1.17
2018-11-11T21:27:38.531Z,0.90
2018-11-11T21:30:08.954Z,1.20
2018-11-11T21:32:37.463Z,1.00
2018-11-11T21:35:06.018Z,1.30
2018-11-11T21:37:34.413Z,1.00
2018-11-11T21:40:02.850Z,0.50
2018-11-11T21:42:31.334Z,1.20
2018-11-11T21:44:59.745Z,1.17
2018-11-11T21:47:28.153Z,0.60
2018-11-11T21:49:56.540Z,1.77
2018-11-11T21:52:25.024Z,1.40
2018-11-11T21:54:53.422Z,1.00
2018-11-11T21:57:21.890Z,1.00
2018-11-11T21:59:50.383Z,0.90
2018-11-11T22:02:18.819Z,0.90
2018-11-11T22:04:47.161Z,0.97
2018-11-11T22:07:15.583Z,0.60
2018-11-11T22:09:44.038Z,0.83
2018-11-11T22:12:12.373Z,1.30
2018-11-11T22:14:40.777Z,0.97
2018-11-11T22:17:09.210Z,1.13
2018-11-11T22:19:37.555Z,1.07
2018-11-11T22:22:06.013Z,1.50
2018-11-11T22:24:34.389Z,1.73
2018-11-11T22:27:03.705Z,1.57
2018-11-11T22:29:32.105Z,1.57
2018-11-11T22:32:00.529Z,1.50
2018-11-11T22:34:28.901Z,1.97
2018-11-11T22:36:57.346Z,1.53
2018-11-11T22:39:25.718Z,2.00
2018-11-11T22:41:54.149Z,1.83
2018-11-11T22:44:22.490Z,2.13
2018-11-11T22:46:50.946Z,2.00
2018-11-11T22:49:19.341Z,1.97
2018-11-11T22:51:47.766Z,1.00
2018-11-11T22:54:16.157Z,0.70
2018-11-11T22:56:44.613Z,0.80
2018-11-11T22:59:12.965Z,1.13
2018-11-11T23:01:41.409Z,1.03
2018-11-11T23:04:09.865Z,0.90
2018-11-11T23:06:38.270Z,1.27
2018-11-11T23:09:09.885Z,0.80
2018-11-11T23:11:38.369Z,1.10
2018-11-11T23:14:06.829Z,0.70
2018-11-11T23:16:35.269Z,0.87
2018-11-11T23:19:03.765Z,1.27
2018-11-11T23:21:32.169Z,1.00
2018-11-11T23:24:00.562Z,1.23
2018-11-11T23:26:28.946Z,0.60
2018-11-11T23:28:57.362Z,0.70
2018-11-11T23:31:25.766Z,0.77
2018-11-11T23:33:54.160Z,1.20
2018-11-11T23:36:22.556Z,1.53
2018-11-11T23:38:50.954Z,1.47
2018-11-11T23:41:19.329Z,0.80
2018-11-11T23:43:47.738Z,0.83
2018-11-11T23:46:16.170Z,0.50
2018-11-11T23:48:44.608Z,0.80
2018-11-11T23:51:13.169Z,0.60
2018-11-11T23:53:41.598Z,0.70
2018-11-11T23:56:09.981Z,1.00
2018-11-11T23:58:38.405Z,0.87
